sensor_id;sensor_type;location;lat;lon;timestamp;temperature;humidity
18729;DHT22;9493;51.884;5.188;2022-11-24T00:00:16;8.40;99.90
18729;DHT22;9493;51.884;5.188;2022-11-24T00:02:43;8.40;99.90
18729;DHT22;9493;51.884;5.188;2022-11-24T00:05:10;8.40;99.90
18729;DHT22;9493;51.884;5.188;2022-11-24T00:07:37;8.30;99.90
18729;DHT22;9493;51.884;5.188;2022-11-24T00:10:04;8.40;99.90
18729;DHT22;9493;51.884;5.188;2022-11-24T00:12:31;8.30;99.90
18729;DHT22;9493;51.884;5.188;2022-11-24T00:14:59;8.30;99.90
18729;DHT22;9493;51.884;5.188;2022-11-24T00:17:26;8.20;99.90
18729;DHT22;9493;51.884;5.188;2022-11-24T00:19:54;8.00;99.90
18729;DHT22;9493;51.884;5.188;2022-11-24T00:22:20;8.00;99.90
18729;DHT22;9493;51.884;5.188;2022-11-24T00:24:47;8.00;99.90
18729;DHT22;9493;51.884;5.188;2022-11-24T00:27:14;7.90;99.90
18729;DHT22;9493;51.884;5.188;2022-11-24T00:29:41;8.00;99.90
18729;DHT22;9493;51.884;5.188;2022-11-24T00:32:10;7.90;99.90
18729;DHT22;9493;51.884;5.188;2022-11-24T00:34:37;7.90;99.90
18729;DHT22;9493;51.884;5.188;2022-11-24T00:37:04;7.80;99.90
18729;DHT22;9493;51.884;5.188;2022-11-24T00:39:31;7.80;99.90
18729;DHT22;9493;51.884;5.188;2022-11-24T00:41:57;7.70;99.90
18729;DHT22;9493;51.884;5.188;2022-11-24T00:44:24;7.80;99.90
18729;DHT22;9493;51.884;5.188;2022-11-24T00:46:51;7.80;99.90
18729;DHT22;9493;51.884;5.188;2022-11-24T00:49:19;7.70;99.90
18729;DHT22;9493;51.884;5.188;2022-11-24T00:51:46;7.70;99.90
18729;DHT22;9493;51.884;5.188;2022-11-24T00:54:13;7.70;99.90
18729;DHT22;9493;51.884;5.188;2022-11-24T00:56:40;7.60;99.90
18729;DHT22;9493;51.884;5.188;2022-11-24T00:59:07;7.90;99.90
18729;DHT22;9493;51.884;5.188;2022-11-24T01:01:34;7.70;99.90
18729;DHT22;9493;51.884;5.188;2022-11-24T01:04:02;7.70;99.90
18729;DHT22;9493;51.884;5.188;2022-11-24T01:06:31;7.80;99.90
18729;DHT22;9493;51.884;5.188;2022-11-24T01:09:00;7.80;99.90
18729;DHT22;9493;51.884;5.188;2022-11-24T01:11:29;7.80;99.90
18729;DHT22;9493;51.884;5.188;2022-11-24T01:14:18;7.80;99.90
18729;DHT22;9493;51.884;5.188;2022-11-24T01:16:45;7.80;99.90
18729;DHT22;9493;51.884;5.188;2022-11-24T01:19:12;7.90;99.90
18729;DHT22;9493;51.884;5.188;2022-11-24T01:21:40;7.90;99.90
18729;DHT22;9493;51.884;5.188;2022-11-24T01:24:07;8.00;99.90
18729;DHT22;9493;51.884;5.188;2022-11-24T01:26:34;8.00;99.90
18729;DHT22;9493;51.884;5.188;2022-11-24T01:29:04;8.10;99.90
18729;DHT22;9493;51.884;5.188;2022-11-24T01:31:31;8.20;99.90
18729;DHT22;9493;51.884;5.188;2022-11-24T01:33:58;8.20;99.90
18729;DHT22;9493;51.884;5.188;2022-11-24T01:36:25;8.30;99.90
18729;DHT22;9493;51.884;5.188;2022-11-24T01:38:53;8.40;99.90
18729;DHT22;9493;51.884;5.188;2022-11-24T01:41:22;8.40;99.90
18729;DHT22;9493;51.884;5.188;2022-11-24T01:43:50;8.40;99.90
18729;DHT22;9493;51.884;5.188;2022-11-24T01:46:21;8.50;99.90
18729;DHT22;9493;51.884;5.188;2022-11-24T01:48:54;8.50;99.90
18729;DHT22;9493;51.884;5.188;2022-11-24T01:51:25;8.40;99.90
18729;DHT22;9493;51.884;5.188;2022-11-24T01:53:57;8.50;99.90
18729;DHT22;9493;51.884;5.188;2022-11-24T01:56:26;8.50;99.90
18729;DHT22;9493;51.884;5.188;2022-11-24T01:58:56;8.50;99.90
18729;DHT22;9493;51.884;5.188;2022-11-24T02:01:24;8.50;99.90
18729;DHT22;9493;51.884;5.188;2022-11-24T02:03:52;8.60;99.90
18729;DHT22;9493;51.884;5.188;2022-11-24T02:06:22;8.50;99.90
18729;DHT22;9493;51.884;5.188;2022-11-24T02:08:56;8.50;99.90
18729;DHT22;9493;51.884;5.188;2022-11-24T02:11:27;8.60;99.90
18729;DHT22;9493;51.884;5.188;2022-11-24T02:13:55;8.60;99.90
18729;DHT22;9493;51.884;5.188;2022-11-24T02:16:22;8.60;99.90
18729;DHT22;9493;51.884;5.188;2022-11-24T02:18:50;8.50;99.90
18729;DHT22;9493;51.884;5.188;2022-11-24T02:21:17;8.50;99.90
18729;DHT22;9493;51.884;5.188;2022-11-24T02:23:51;8.50;99.90
18729;DHT22;9493;51.884;5.188;2022-11-24T02:26:28;8.50;99.90
18729;DHT22;9493;51.884;5.188;2022-11-24T02:28:56;8.50;99.90
18729;DHT22;9493;51.884;5.188;2022-11-24T02:31:23;8.60;99.90
18729;DHT22;9493;51.884;5.188;2022-11-24T02:33:50;9.00;99.90
18729;DHT22;9493;51.884;5.188;2022-11-24T02:36:17;8.70;99.90
18729;DHT22;9493;51.884;5.188;2022-11-24T02:38:44;8.70;99.90
18729;DHT22;9493;51.884;5.188;2022-11-24T02:41:14;8.70;99.90
18729;DHT22;9493;51.884;5.188;2022-11-24T02:43:47;8.70;99.90
18729;DHT22;9493;51.884;5.188;2022-11-24T02:46:14;8.70;99.90
18729;DHT22;9493;51.884;5.188;2022-11-24T02:48:41;8.80;99.90
18729;DHT22;9493;51.884;5.188;2022-11-24T02:51:08;8.70;99.90
18729;DHT22;9493;51.884;5.188;2022-11-24T02:53:35;8.70;99.90
18729;DHT22;9493;51.884;5.188;2022-11-24T02:56:02;8.70;99.90
18729;DHT22;9493;51.884;5.188;2022-11-24T02:58:29;8.70;99.90
18729;DHT22;9493;51.884;5.188;2022-11-24T03:00:57;8.70;99.90
18729;DHT22;9493;51.884;5.188;2022-11-24T03:03:25;8.70;99.90
18729;DHT22;9493;51.884;5.188;2022-11-24T03:05:52;8.70;99.90
18729;DHT22;9493;51.884;5.188;2022-11-24T03:08:19;8.80;99.90
18729;DHT22;9493;51.884;5.188;2022-11-24T03:10:46;8.70;99.90
18729;DHT22;9493;51.884;5.188;2022-11-24T03:13:13;8.70;99.90
18729;DHT22;9493;51.884;5.188;2022-11-24T03:15:40;8.70;99.90
18729;DHT22;9493;51.884;5.188;2022-11-24T03:18:08;8.80;99.90
18729;DHT22;9493;51.884;5.188;2022-11-24T03:20:35;8.70;99.90
18729;DHT22;9493;51.884;5.188;2022-11-24T03:23:02;8.70;99.90
18729;DHT22;9493;51.884;5.188;2022-11-24T03:25:29;8.70;99.90
18729;DHT22;9493;51.884;5.188;2022-11-24T03:27:56;8.70;99.90
18729;DHT22;9493;51.884;5.188;2022-11-24T03:30:23;8.70;99.90
18729;DHT22;9493;51.884;5.188;2022-11-24T03:32:50;8.70;99.90
18729;DHT22;9493;51.884;5.188;2022-11-24T03:35:18;8.60;99.90
18729;DHT22;9493;51.884;5.188;2022-11-24T03:37:45;8.60;99.90
18729;DHT22;9493;51.884;5.188;2022-11-24T03:40:12;8.60;99.90
18729;DHT22;9493;51.884;5.188;2022-11-24T03:42:39;8.50;99.90
18729;DHT22;9493;51.884;5.188;2022-11-24T03:45:07;8.80;99.90
18729;DHT22;9493;51.884;5.188;2022-11-24T03:47:34;8.50;99.90
18729;DHT22;9493;51.884;5.188;2022-11-24T03:50:01;8.50;99.90
18729;DHT22;9493;51.884;5.188;2022-11-24T03:52:29;8.50;99.90
18729;DHT22;9493;51.884;5.188;2022-11-24T03:54:56;8.50;99.90
18729;DHT22;9493;51.884;5.188;2022-11-24T03:57:23;8.50;99.90
18729;DHT22;9493;51.884;5.188;2022-11-24T03:59:50;8.40;99.90
18729;DHT22;9493;51.884;5.188;2022-11-24T04:02:16;8.40;99.90
18729;DHT22;9493;51.884;5.188;2022-11-24T04:04:43;8.40;99.90
18729;DHT22;9493;51.884;5.188;2022-11-24T04:07:15;8.40;99.90
18729;DHT22;9493;51.884;5.188;2022-11-24T04:09:43;8.40;99.90
18729;DHT22;9493;51.884;5.188;2022-11-24T04:12:10;8.50;99.90
18729;DHT22;9493;51.884;5.188;2022-11-24T04:14:54;8.40;99.90
18729;DHT22;9493;51.884;5.188;2022-11-24T04:17:21;8.50;99.90
18729;DHT22;9493;51.884;5.188;2022-11-24T04:19:48;8.40;99.90
18729;DHT22;9493;51.884;5.188;2022-11-24T04:22:14;8.40;99.90
18729;DHT22;9493;51.884;5.188;2022-11-24T04:24:42;8.40;99.90
18729;DHT22;9493;51.884;5.188;2022-11-24T04:27:09;8.40;99.90
18729;DHT22;9493;51.884;5.188;2022-11-24T04:29:36;8.40;99.90
18729;DHT22;9493;51.884;5.188;2022-11-24T04:32:03;8.40;99.90
18729;DHT22;9493;51.884;5.188;2022-11-24T04:34:30;8.40;99.90
18729;DHT22;9493;51.884;5.188;2022-11-24T04:36:56;8.40;99.90
18729;DHT22;9493;51.884;5.188;2022-11-24T04:39:23;8.40;99.90
18729;DHT22;9493;51.884;5.188;2022-11-24T04:41:52;8.40;99.90
18729;DHT22;9493;51.884;5.188;2022-11-24T04:44:19;8.30;99.90
18729;DHT22;9493;51.884;5.188;2022-11-24T04:46:46;8.30;99.90
18729;DHT22;9493;51.884;5.188;2022-11-24T04:49:12;8.30;99.90
18729;DHT22;9493;51.884;5.188;2022-11-24T04:51:41;8.30;99.90
18729;DHT22;9493;51.884;5.188;2022-11-24T04:54:09;8.30;99.90
18729;DHT22;9493;51.884;5.188;2022-11-24T04:56:37;8.30;99.90
18729;DHT22;9493;51.884;5.188;2022-11-24T04:59:05;8.30;99.90
18729;DHT22;9493;51.884;5.188;2022-11-24T05:01:32;8.10;99.90
18729;DHT22;9493;51.884;5.188;2022-11-24T05:03:58;8.10;99.90
18729;DHT22;9493;51.884;5.188;2022-11-24T05:06:25;8.00;99.90
18729;DHT22;9493;51.884;5.188;2022-11-24T05:08:52;8.00;99.90
18729;DHT22;9493;51.884;5.188;2022-11-24T05:11:19;8.00;99.90
18729;DHT22;9493;51.884;5.188;2022-11-24T05:13:44;8.00;99.90
18729;DHT22;9493;51.884;5.188;2022-11-24T05:16:12;8.00;99.90
18729;DHT22;9493;51.884;5.188;2022-11-24T05:18:39;8.00;99.90
18729;DHT22;9493;51.884;5.188;2022-11-24T05:21:06;8.10;99.90
18729;DHT22;9493;51.884;5.188;2022-11-24T05:23:33;8.00;99.90
18729;DHT22;9493;51.884;5.188;2022-11-24T05:26:00;8.00;99.90
18729;DHT22;9493;51.884;5.188;2022-11-24T05:28:27;8.00;99.90
18729;DHT22;9493;51.884;5.188;2022-11-24T05:30:57;7.90;99.90
18729;DHT22;9493;51.884;5.188;2022-11-24T05:33:26;7.90;99.90
18729;DHT22;9493;51.884;5.188;2022-11-24T05:35:54;7.90;99.90
18729;DHT22;9493;51.884;5.188;2022-11-24T05:38:21;7.90;99.90
18729;DHT22;9493;51.884;5.188;2022-11-24T05:40:48;8.00;99.90
18729;DHT22;9493;51.884;5.188;2022-11-24T05:43:15;7.90;99.90
18729;DHT22;9493;51.884;5.188;2022-11-24T05:45:42;7.90;99.90
18729;DHT22;9493;51.884;5.188;2022-11-24T05:48:12;7.90;99.90
18729;DHT22;9493;51.884;5.188;2022-11-24T05:50:40;7.80;99.90
18729;DHT22;9493;51.884;5.188;2022-11-24T05:53:09;7.90;99.90
18729;DHT22;9493;51.884;5.188;2022-11-24T05:55:37;7.90;99.90
18729;DHT22;9493;51.884;5.188;2022-11-24T05:58:06;7.80;99.90
18729;DHT22;9493;51.884;5.188;2022-11-24T06:00:34;7.80;99.90
18729;DHT22;9493;51.884;5.188;2022-11-24T06:03:01;7.80;99.90
18729;DHT22;9493;51.884;5.188;2022-11-24T06:05:28;7.80;99.90
18729;DHT22;9493;51.884;5.188;2022-11-24T06:07:57;7.80;99.90
18729;DHT22;9493;51.884;5.188;2022-11-24T06:10:24;7.70;99.90
18729;DHT22;9493;51.884;5.188;2022-11-24T06:12:51;7.80;99.90
18729;DHT22;9493;51.884;5.188;2022-11-24T06:15:18;7.70;99.90
18729;DHT22;9493;51.884;5.188;2022-11-24T06:17:51;7.70;99.90
18729;DHT22;9493;51.884;5.188;2022-11-24T06:20:19;7.80;99.90
18729;DHT22;9493;51.884;5.188;2022-11-24T06:22:45;7.70;99.90
18729;DHT22;9493;51.884;5.188;2022-11-24T06:25:14;7.70;99.90
18729;DHT22;9493;51.884;5.188;2022-11-24T06:27:41;7.70;99.90
18729;DHT22;9493;51.884;5.188;2022-11-24T06:30:09;7.70;99.90
18729;DHT22;9493;51.884;5.188;2022-11-24T06:32:36;7.70;99.90
18729;DHT22;9493;51.884;5.188;2022-11-24T06:35:04;7.70;99.90
18729;DHT22;9493;51.884;5.188;2022-11-24T06:37:31;7.70;99.90
18729;DHT22;9493;51.884;5.188;2022-11-24T06:39:57;7.70;99.90
18729;DHT22;9493;51.884;5.188;2022-11-24T06:42:25;7.70;99.90
18729;DHT22;9493;51.884;5.188;2022-11-24T06:44:52;7.70;99.90
18729;DHT22;9493;51.884;5.188;2022-11-24T06:47:19;7.70;99.90
18729;DHT22;9493;51.884;5.188;2022-11-24T06:49:46;7.70;99.90
18729;DHT22;9493;51.884;5.188;2022-11-24T06:52:12;7.70;99.90
18729;DHT22;9493;51.884;5.188;2022-11-24T06:54:39;7.70;99.90
18729;DHT22;9493;51.884;5.188;2022-11-24T06:57:06;7.70;99.90
18729;DHT22;9493;51.884;5.188;2022-11-24T06:59:34;7.80;99.90
18729;DHT22;9493;51.884;5.188;2022-11-24T07:02:01;8.00;99.90
18729;DHT22;9493;51.884;5.188;2022-11-24T07:04:27;7.70;99.90
18729;DHT22;9493;51.884;5.188;2022-11-24T07:06:54;7.70;99.90
18729;DHT22;9493;51.884;5.188;2022-11-24T07:09:21;7.70;99.90
18729;DHT22;9493;51.884;5.188;2022-11-24T07:11:47;7.70;99.90
18729;DHT22;9493;51.884;5.188;2022-11-24T07:14:14;7.70;99.90
18729;DHT22;9493;51.884;5.188;2022-11-24T07:16:42;7.70;99.90
18729;DHT22;9493;51.884;5.188;2022-11-24T07:19:09;7.60;99.90
18729;DHT22;9493;51.884;5.188;2022-11-24T07:21:36;7.60;99.90
18729;DHT22;9493;51.884;5.188;2022-11-24T07:24:04;7.60;99.90
18729;DHT22;9493;51.884;5.188;2022-11-24T07:26:31;7.60;99.90
18729;DHT22;9493;51.884;5.188;2022-11-24T07:29:01;7.60;99.90
18729;DHT22;9493;51.884;5.188;2022-11-24T07:31:28;7.60;99.90
18729;DHT22;9493;51.884;5.188;2022-11-24T07:33:56;7.60;99.90
18729;DHT22;9493;51.884;5.188;2022-11-24T07:36:23;7.60;99.90
18729;DHT22;9493;51.884;5.188;2022-11-24T07:38:50;7.60;99.90
18729;DHT22;9493;51.884;5.188;2022-11-24T07:41:17;7.60;99.90
18729;DHT22;9493;51.884;5.188;2022-11-24T07:43:45;7.70;99.90
18729;DHT22;9493;51.884;5.188;2022-11-24T07:46:13;7.70;99.90
18729;DHT22;9493;51.884;5.188;2022-11-24T07:48:40;7.70;99.90
18729;DHT22;9493;51.884;5.188;2022-11-24T07:51:09;7.80;99.90
18729;DHT22;9493;51.884;5.188;2022-11-24T07:53:36;7.80;99.90
18729;DHT22;9493;51.884;5.188;2022-11-24T07:56:04;7.80;99.90
18729;DHT22;9493;51.884;5.188;2022-11-24T07:58:34;7.80;99.90
18729;DHT22;9493;51.884;5.188;2022-11-24T08:01:08;7.80;99.90
18729;DHT22;9493;51.884;5.188;2022-11-24T08:03:36;7.90;99.90
18729;DHT22;9493;51.884;5.188;2022-11-24T08:06:02;7.90;99.90
18729;DHT22;9493;51.884;5.188;2022-11-24T08:08:31;7.90;99.90
18729;DHT22;9493;51.884;5.188;2022-11-24T08:11:03;7.90;99.90
18729;DHT22;9493;51.884;5.188;2022-11-24T08:13:30;7.90;99.90
18729;DHT22;9493;51.884;5.188;2022-11-24T08:15:57;7.90;99.90
18729;DHT22;9493;51.884;5.188;2022-11-24T08:18:23;7.90;99.90
18729;DHT22;9493;51.884;5.188;2022-11-24T08:20:52;7.90;99.90
18729;DHT22;9493;51.884;5.188;2022-11-24T08:23:19;8.00;99.90
18729;DHT22;9493;51.884;5.188;2022-11-24T08:25:47;8.10;99.90
18729;DHT22;9493;51.884;5.188;2022-11-24T08:28:13;8.20;99.90
18729;DHT22;9493;51.884;5.188;2022-11-24T08:30:40;8.20;99.90
18729;DHT22;9493;51.884;5.188;2022-11-24T08:33:07;8.30;99.90
18729;DHT22;9493;51.884;5.188;2022-11-24T08:35:35;8.40;99.90
18729;DHT22;9493;51.884;5.188;2022-11-24T08:38:02;8.20;99.90
18729;DHT22;9493;51.884;5.188;2022-11-24T08:40:29;8.20;99.90
18729;DHT22;9493;51.884;5.188;2022-11-24T08:42:57;8.40;99.90
18729;DHT22;9493;51.884;5.188;2022-11-24T08:45:25;9.50;99.90
18729;DHT22;9493;51.884;5.188;2022-11-24T08:47:52;10.00;99.90
18729;DHT22;9493;51.884;5.188;2022-11-24T08:50:19;9.40;99.90
18729;DHT22;9493;51.884;5.188;2022-11-24T08:52:46;9.20;99.90
18729;DHT22;9493;51.884;5.188;2022-11-24T08:55:13;10.10;99.90
18729;DHT22;9493;51.884;5.188;2022-11-24T08:57:39;9.90;99.90
18729;DHT22;9493;51.884;5.188;2022-11-24T09:00:09;9.30;99.90
18729;DHT22;9493;51.884;5.188;2022-11-24T09:02:36;9.00;99.90
18729;DHT22;9493;51.884;5.188;2022-11-24T09:05:03;8.90;99.90
18729;DHT22;9493;51.884;5.188;2022-11-24T09:07:30;8.90;99.90
18729;DHT22;9493;51.884;5.188;2022-11-24T09:09:57;9.70;99.90
18729;DHT22;9493;51.884;5.188;2022-11-24T09:12:23;9.80;99.90
18729;DHT22;9493;51.884;5.188;2022-11-24T09:14:50;10.30;99.90
18729;DHT22;9493;51.884;5.188;2022-11-24T09:17:18;10.10;99.90
18729;DHT22;9493;51.884;5.188;2022-11-24T09:19:45;10.20;99.90
18729;DHT22;9493;51.884;5.188;2022-11-24T09:22:12;10.30;99.90
18729;DHT22;9493;51.884;5.188;2022-11-24T09:24:39;10.30;99.90
18729;DHT22;9493;51.884;5.188;2022-11-24T09:27:06;10.30;99.90
18729;DHT22;9493;51.884;5.188;2022-11-24T09:29:32;9.90;99.90
18729;DHT22;9493;51.884;5.188;2022-11-24T09:31:59;9.90;99.90
18729;DHT22;9493;51.884;5.188;2022-11-24T09:34:27;10.00;99.90
18729;DHT22;9493;51.884;5.188;2022-11-24T09:36:54;10.00;99.90
18729;DHT22;9493;51.884;5.188;2022-11-24T09:39:22;10.00;99.90
18729;DHT22;9493;51.884;5.188;2022-11-24T09:42:00;10.00;99.90
18729;DHT22;9493;51.884;5.188;2022-11-24T09:44:50;10.10;99.90
18729;DHT22;9493;51.884;5.188;2022-11-24T09:47:28;10.10;99.90
18729;DHT22;9493;51.884;5.188;2022-11-24T09:50:01;10.10;99.90
18729;DHT22;9493;51.884;5.188;2022-11-24T09:52:37;10.10;99.90
18729;DHT22;9493;51.884;5.188;2022-11-24T09:55:16;10.10;99.90
18729;DHT22;9493;51.884;5.188;2022-11-24T09:57:48;10.00;99.90
18729;DHT22;9493;51.884;5.188;2022-11-24T10:00:19;10.00;99.90
18729;DHT22;9493;51.884;5.188;2022-11-24T10:02:47;10.00;99.90
18729;DHT22;9493;51.884;5.188;2022-11-24T10:05:16;10.00;99.90
18729;DHT22;9493;51.884;5.188;2022-11-24T10:07:47;9.90;99.90
18729;DHT22;9493;51.884;5.188;2022-11-24T10:10:17;9.80;99.90
18729;DHT22;9493;51.884;5.188;2022-11-24T10:12:52;9.80;99.90
18729;DHT22;9493;51.884;5.188;2022-11-24T10:15:40;10.00;99.90
18729;DHT22;9493;51.884;5.188;2022-11-24T10:18:27;9.90;99.90
18729;DHT22;9493;51.884;5.188;2022-11-24T10:21:08;10.00;99.90
18729;DHT22;9493;51.884;5.188;2022-11-24T10:23:58;10.10;99.90
18729;DHT22;9493;51.884;5.188;2022-11-24T10:26:34;10.00;99.90
18729;DHT22;9493;51.884;5.188;2022-11-24T10:29:12;10.30;99.90
18729;DHT22;9493;51.884;5.188;2022-11-24T10:31:41;10.40;99.90
18729;DHT22;9493;51.884;5.188;2022-11-24T10:34:12;10.40;99.90
18729;DHT22;9493;51.884;5.188;2022-11-24T10:36:45;10.50;99.90
18729;DHT22;9493;51.884;5.188;2022-11-24T10:39:19;10.40;99.90
18729;DHT22;9493;51.884;5.188;2022-11-24T10:41:51;10.50;99.90
18729;DHT22;9493;51.884;5.188;2022-11-24T10:44:20;10.60;99.90
18729;DHT22;9493;51.884;5.188;2022-11-24T10:46:47;10.60;99.90
18729;DHT22;9493;51.884;5.188;2022-11-24T10:49:17;10.70;99.90
18729;DHT22;9493;51.884;5.188;2022-11-24T10:51:58;10.80;99.90
18729;DHT22;9493;51.884;5.188;2022-11-24T10:54:29;11.00;99.90
18729;DHT22;9493;51.884;5.188;2022-11-24T10:56:56;11.20;99.90
18729;DHT22;9493;51.884;5.188;2022-11-24T10:59:35;11.10;99.90
18729;DHT22;9493;51.884;5.188;2022-11-24T11:02:02;11.20;99.90
18729;DHT22;9493;51.884;5.188;2022-11-24T11:04:31;11.20;99.90
18729;DHT22;9493;51.884;5.188;2022-11-24T11:07:24;11.10;99.90
18729;DHT22;9493;51.884;5.188;2022-11-24T11:10:18;11.30;99.90
18729;DHT22;9493;51.884;5.188;2022-11-24T11:12:45;11.20;99.90
18729;DHT22;9493;51.884;5.188;2022-11-24T11:15:21;11.30;99.90
18729;DHT22;9493;51.884;5.188;2022-11-24T11:17:49;11.40;99.90
18729;DHT22;9493;51.884;5.188;2022-11-24T11:20:24;11.40;99.90
18729;DHT22;9493;51.884;5.188;2022-11-24T11:22:54;11.80;99.90
18729;DHT22;9493;51.884;5.188;2022-11-24T11:25:24;11.90;99.90
18729;DHT22;9493;51.884;5.188;2022-11-24T11:28:14;12.00;99.90
18729;DHT22;9493;51.884;5.188;2022-11-24T11:30:54;12.10;99.90
18729;DHT22;9493;51.884;5.188;2022-11-24T11:33:24;12.40;99.90
18729;DHT22;9493;51.884;5.188;2022-11-24T11:35:51;12.50;99.90
18729;DHT22;9493;51.884;5.188;2022-11-24T11:38:19;12.40;99.90
18729;DHT22;9493;51.884;5.188;2022-11-24T11:40:48;12.30;99.90
18729;DHT22;9493;51.884;5.188;2022-11-24T11:43:20;12.20;99.90
18729;DHT22;9493;51.884;5.188;2022-11-24T11:45:58;12.30;99.90
18729;DHT22;9493;51.884;5.188;2022-11-24T11:48:29;12.10;99.90
18729;DHT22;9493;51.884;5.188;2022-11-24T11:51:01;12.30;99.90
18729;DHT22;9493;51.884;5.188;2022-11-24T11:53:38;12.50;99.90
18729;DHT22;9493;51.884;5.188;2022-11-24T11:56:20;12.30;99.90
18729;DHT22;9493;51.884;5.188;2022-11-24T11:59:10;12.60;99.90
18729;DHT22;9493;51.884;5.188;2022-11-24T12:04:46;12.90;99.90
18729;DHT22;9493;51.884;5.188;2022-11-24T12:07:39;12.80;99.90
18729;DHT22;9493;51.884;5.188;2022-11-24T12:10:19;13.50;99.90
18729;DHT22;9493;51.884;5.188;2022-11-24T12:13:02;13.10;99.90
18729;DHT22;9493;51.884;5.188;2022-11-24T12:15:37;13.20;99.90
18729;DHT22;9493;51.884;5.188;2022-11-24T12:18:13;12.80;99.90
18729;DHT22;9493;51.884;5.188;2022-11-24T12:20:50;12.90;99.90
18729;DHT22;9493;51.884;5.188;2022-11-24T12:23:28;13.00;99.90
18729;DHT22;9493;51.884;5.188;2022-11-24T12:26:02;13.30;99.90
18729;DHT22;9493;51.884;5.188;2022-11-24T12:28:40;13.30;99.90
18729;DHT22;9493;51.884;5.188;2022-11-24T12:31:14;13.30;99.90
18729;DHT22;9493;51.884;5.188;2022-11-24T12:33:59;13.30;99.90
18729;DHT22;9493;51.884;5.188;2022-11-24T12:36:40;13.30;99.90
18729;DHT22;9493;51.884;5.188;2022-11-24T12:39:20;13.50;99.90
18729;DHT22;9493;51.884;5.188;2022-11-24T12:42:00;13.40;99.90
18729;DHT22;9493;51.884;5.188;2022-11-24T12:44:49;13.30;99.90
18729;DHT22;9493;51.884;5.188;2022-11-24T12:47:20;13.20;99.90
18729;DHT22;9493;51.884;5.188;2022-11-24T12:49:56;13.70;99.90
18729;DHT22;9493;51.884;5.188;2022-11-24T12:52:30;13.70;99.90
18729;DHT22;9493;51.884;5.188;2022-11-24T12:54:58;13.70;99.90
18729;DHT22;9493;51.884;5.188;2022-11-24T12:57:29;13.70;99.90
18729;DHT22;9493;51.884;5.188;2022-11-24T13:00:02;13.50;99.90
18729;DHT22;9493;51.884;5.188;2022-11-24T13:02:39;13.40;99.90
18729;DHT22;9493;51.884;5.188;2022-11-24T13:05:17;13.70;99.90
18729;DHT22;9493;51.884;5.188;2022-11-24T13:07:48;13.80;99.90
18729;DHT22;9493;51.884;5.188;2022-11-24T13:10:32;13.50;99.90
18729;DHT22;9493;51.884;5.188;2022-11-24T13:13:02;13.30;99.90
18729;DHT22;9493;51.884;5.188;2022-11-24T13:15:31;13.40;99.90
18729;DHT22;9493;51.884;5.188;2022-11-24T13:17:58;13.40;99.90
18729;DHT22;9493;51.884;5.188;2022-11-24T13:20:30;13.20;99.90
18729;DHT22;9493;51.884;5.188;2022-11-24T13:22:59;13.00;99.90
18729;DHT22;9493;51.884;5.188;2022-11-24T13:25:27;13.30;99.90
18729;DHT22;9493;51.884;5.188;2022-11-24T13:27:55;13.40;99.90
18729;DHT22;9493;51.884;5.188;2022-11-24T13:33:35;13.30;99.90
18729;DHT22;9493;51.884;5.188;2022-11-24T13:39:19;13.30;99.90
18729;DHT22;9493;51.884;5.188;2022-11-24T13:42:07;13.40;99.90
18729;DHT22;9493;51.884;5.188;2022-11-24T13:44:48;13.50;99.90
18729;DHT22;9493;51.884;5.188;2022-11-24T13:50:22;13.40;99.90
18729;DHT22;9493;51.884;5.188;2022-11-24T13:52:52;13.60;99.90
18729;DHT22;9493;51.884;5.188;2022-11-24T13:55:30;13.30;99.90
18729;DHT22;9493;51.884;5.188;2022-11-24T13:58:05;13.30;99.90
18729;DHT22;9493;51.884;5.188;2022-11-24T14:01:01;13.30;99.90
18729;DHT22;9493;51.884;5.188;2022-11-24T14:03:31;13.40;99.90
18729;DHT22;9493;51.884;5.188;2022-11-24T14:06:01;13.80;99.90
18729;DHT22;9493;51.884;5.188;2022-11-24T14:08:30;14.20;99.90
18729;DHT22;9493;51.884;5.188;2022-11-24T14:10:59;14.90;99.90
18729;DHT22;9493;51.884;5.188;2022-11-24T14:13:28;14.80;99.90
18729;DHT22;9493;51.884;5.188;2022-11-24T14:16:00;14.80;99.90
18729;DHT22;9493;51.884;5.188;2022-11-24T14:18:27;14.70;99.90
18729;DHT22;9493;51.884;5.188;2022-11-24T14:20:56;14.10;99.90
18729;DHT22;9493;51.884;5.188;2022-11-24T14:23:24;14.50;99.90
18729;DHT22;9493;51.884;5.188;2022-11-24T14:25:51;14.30;99.90
18729;DHT22;9493;51.884;5.188;2022-11-24T14:28:22;13.30;99.90
18729;DHT22;9493;51.884;5.188;2022-11-24T14:30:50;12.80;99.90
18729;DHT22;9493;51.884;5.188;2022-11-24T14:33:18;13.00;99.90
18729;DHT22;9493;51.884;5.188;2022-11-24T14:35:46;12.70;99.90
18729;DHT22;9493;51.884;5.188;2022-11-24T14:38:13;12.90;99.90
18729;DHT22;9493;51.884;5.188;2022-11-24T14:40:43;12.90;99.90
18729;DHT22;9493;51.884;5.188;2022-11-24T14:43:20;12.90;99.90
18729;DHT22;9493;51.884;5.188;2022-11-24T14:45:48;12.70;99.90
18729;DHT22;9493;51.884;5.188;2022-11-24T14:48:25;12.30;99.90
18729;DHT22;9493;51.884;5.188;2022-11-24T14:51:03;12.20;99.90
18729;DHT22;9493;51.884;5.188;2022-11-24T14:53:30;11.90;99.90
18729;DHT22;9493;51.884;5.188;2022-11-24T14:56:09;11.90;99.90
18729;DHT22;9493;51.884;5.188;2022-11-24T14:58:45;11.70;99.90
18729;DHT22;9493;51.884;5.188;2022-11-24T15:01:21;11.60;99.90
18729;DHT22;9493;51.884;5.188;2022-11-24T15:04:11;11.50;99.90
18729;DHT22;9493;51.884;5.188;2022-11-24T15:06:39;11.30;99.90
18729;DHT22;9493;51.884;5.188;2022-11-24T15:09:16;11.20;99.90
18729;DHT22;9493;51.884;5.188;2022-11-24T15:11:45;11.20;99.90
18729;DHT22;9493;51.884;5.188;2022-11-24T15:14:28;11.00;99.90
18729;DHT22;9493;51.884;5.188;2022-11-24T15:16:57;11.10;99.90
18729;DHT22;9493;51.884;5.188;2022-11-24T15:19:27;10.90;99.90
18729;DHT22;9493;51.884;5.188;2022-11-24T15:21:56;10.90;99.90
18729;DHT22;9493;51.884;5.188;2022-11-24T15:24:23;10.80;99.90
18729;DHT22;9493;51.884;5.188;2022-11-24T15:26:57;10.60;99.90
18729;DHT22;9493;51.884;5.188;2022-11-24T15:29:25;10.50;99.90
18729;DHT22;9493;51.884;5.188;2022-11-24T15:31:51;10.40;99.90
18729;DHT22;9493;51.884;5.188;2022-11-24T15:34:18;10.30;99.90
18729;DHT22;9493;51.884;5.188;2022-11-24T15:36:45;10.10;99.90
18729;DHT22;9493;51.884;5.188;2022-11-24T15:39:12;10.20;99.90
18729;DHT22;9493;51.884;5.188;2022-11-24T15:41:39;10.10;99.90
18729;DHT22;9493;51.884;5.188;2022-11-24T15:44:09;10.00;99.90
18729;DHT22;9493;51.884;5.188;2022-11-24T15:46:35;9.80;99.90
18729;DHT22;9493;51.884;5.188;2022-11-24T15:49:04;9.70;99.90
18729;DHT22;9493;51.884;5.188;2022-11-24T15:51:31;9.60;99.90
18729;DHT22;9493;51.884;5.188;2022-11-24T15:53:58;9.60;99.90
18729;DHT22;9493;51.884;5.188;2022-11-24T15:56:28;9.50;99.90
18729;DHT22;9493;51.884;5.188;2022-11-24T15:58:55;9.50;99.90
18729;DHT22;9493;51.884;5.188;2022-11-24T16:01:27;9.50;99.90
18729;DHT22;9493;51.884;5.188;2022-11-24T16:03:55;9.50;99.90
18729;DHT22;9493;51.884;5.188;2022-11-24T16:06:23;9.50;99.90
18729;DHT22;9493;51.884;5.188;2022-11-24T16:08:50;9.50;99.90
18729;DHT22;9493;51.884;5.188;2022-11-24T16:11:16;9.40;99.90
18729;DHT22;9493;51.884;5.188;2022-11-24T16:13:43;9.40;99.90
18729;DHT22;9493;51.884;5.188;2022-11-24T16:16:11;9.40;99.90
18729;DHT22;9493;51.884;5.188;2022-11-24T16:18:40;9.50;99.90
18729;DHT22;9493;51.884;5.188;2022-11-24T16:21:07;9.60;99.90
18729;DHT22;9493;51.884;5.188;2022-11-24T16:23:35;9.60;99.90